Terminal Aerodrome Forecast
Issued by NWS North Platte, NE

Home | Current Version | Previous Version | Text Only | Print | Product List | Glossary On
Versions: 1 2 3 4 5 6 7 8 9 10 11 12 13 14 15 16 17 18
000
FTUS43 KLBF 241120
TAFLBF
TAF
KLBF 241120Z 2412/2512 00000KT P6SM BKN100
     FM241700 27007KT P6SM SCT100 SCT250
     FM242000 30008KT P6SM BKN250
     FM250200 VRB03KT P6SM SCT250=

USA.gov is the U.S. government's official web portal to all federal, state and local government web resources and services.